createdAt,value
2022-10-10T00:00:43.897Z,101422.91
2022-10-10T00:03:41.042Z,101421.72
2022-10-10T00:06:38.315Z,101414.63
2022-10-10T00:09:36.059Z,101407.34
2022-10-10T00:12:32.821Z,101406.72
2022-10-10T00:15:31.488Z,101406.22
2022-10-10T00:18:29.347Z,101404.09
2022-10-10T00:21:26.884Z,101406.72
2022-10-10T00:24:23.786Z,101393.78
2022-10-10T00:27:21.003Z,101394.28
2022-10-10T00:30:17.903Z,101401.09
2022-10-10T00:33:14.895Z,101402.66
2022-10-10T00:36:11.875Z,101394.84
2022-10-10T00:39:08.592Z,101384.63
2022-10-10T00:42:06.003Z,101378.25
2022-10-10T00:45:27.188Z,101365.63
2022-10-10T00:48:44.243Z,101361.69
2022-10-10T00:51:41.456Z,101369.34
2022-10-10T00:54:39.186Z,101373.47
2022-10-10T00:57:36.204Z,101365.69
2022-10-10T01:00:33.042Z,101365.03
2022-10-10T01:03:29.881Z,101371.66
2022-10-10T01:06:27.345Z,101366.34
2022-10-10T01:09:23.992Z,101369.81
2022-10-10T01:12:25.337Z,101361.06
2022-10-10T01:15:24.121Z,101354.59
2022-10-10T01:18:48.642Z,101347.47
2022-10-10T01:21:55.948Z,101349.31
2022-10-10T01:24:56.386Z,101346.00
2022-10-10T01:27:58.618Z,101339.88
2022-10-10T01:30:56.011Z,101328.78
2022-10-10T01:34:24.057Z,101333.41
2022-10-10T01:37:22.418Z,101333.38
2022-10-10T01:40:38.461Z,101326.97
2022-10-10T01:43:36.736Z,101322.28
2022-10-10T01:46:33.984Z,101324.13
2022-10-10T01:49:31.417Z,101317.34
2022-10-10T01:52:40.354Z,101318.34
2022-10-10T01:55:49.067Z,101315.19
2022-10-10T01:58:51.698Z,101316.34
2022-10-10T02:02:02.661Z,101311.84
2022-10-10T02:05:05.926Z,101313.97
2022-10-10T02:08:21.987Z,101306.13
2022-10-10T02:11:18.947Z,101300.50
2022-10-10T02:14:19.123Z,101293.41
2022-10-10T02:17:16.068Z,101300.69
2022-10-10T02:20:13.355Z,101306.50
2022-10-10T02:23:11.655Z,101296.06
2022-10-10T02:26:10.161Z,101295.53
2022-10-10T02:29:16.643Z,101289.03
2022-10-10T02:32:28.320Z,101279.81
2022-10-10T02:35:29.202Z,101273.03
2022-10-10T02:38:25.907Z,101268.75
2022-10-10T02:41:23.468Z,101266.47
2022-10-10T02:44:21.173Z,101264.16
2022-10-10T02:47:18.063Z,101256.91
2022-10-10T02:50:15.253Z,101261.69
2022-10-10T02:53:12.387Z,101263.34
2022-10-10T02:56:08.969Z,101259.41
2022-10-10T02:59:06.084Z,101255.75
2022-10-10T03:02:03.260Z,101253.94
2022-10-10T03:05:00.096Z,101246.63
2022-10-10T03:07:56.882Z,101245.78
2022-10-10T03:10:55.059Z,101235.53
2022-10-10T03:13:51.912Z,101240.16
2022-10-10T03:16:48.987Z,101238.19
2022-10-10T03:19:45.821Z,101235.22
2022-10-10T03:22:43.074Z,101235.22
2022-10-10T03:25:41.510Z,101236.88
2022-10-10T03:28:39.265Z,101235.72
2022-10-10T03:31:36.194Z,101242.84
2022-10-10T03:34:33.135Z,101233.06
2022-10-10T03:37:29.985Z,101231.72
2022-10-10T03:40:26.898Z,101231.59
2022-10-10T03:43:24.225Z,101223.63
2022-10-10T03:46:21.366Z,101225.28
2022-10-10T03:49:18.307Z,101221.31
2022-10-10T03:52:14.935Z,101220.97
2022-10-10T03:55:11.929Z,101218.66
2022-10-10T03:58:09.942Z,101215.69
2022-10-10T04:01:07.190Z,101207.06
2022-10-10T04:04:05.164Z,101207.41
2022-10-10T04:07:02.090Z,101200.63
2022-10-10T04:09:59.032Z,101204.91
2022-10-10T04:12:56.327Z,101206.72
2022-10-10T04:15:53.721Z,101194.31
2022-10-10T04:18:51.152Z,101190.16
2022-10-10T04:21:48.143Z,101189.22
2022-10-10T04:24:45.235Z,101185.22
2022-10-10T04:27:43.691Z,101185.72
2022-10-10T04:30:41.620Z,101184.22
2022-10-10T04:33:39.395Z,101185.41
2022-10-10T04:36:36.882Z,101179.25
2022-10-10T04:39:34.350Z,101169.66
2022-10-10T04:42:31.438Z,101171.31
2022-10-10T04:45:28.143Z,101172.47
2022-10-10T04:48:25.402Z,101173.59
2022-10-10T04:51:22.055Z,101178.41
2022-10-10T04:54:19.034Z,101171.97
2022-10-10T04:57:16.135Z,101174.59
2022-10-10T05:00:13.263Z,101168.81
2022-10-10T05:03:12.616Z,101164.81
2022-10-10T05:06:10.183Z,101158.06
2022-10-10T05:09:07.320Z,101165.50
2022-10-10T05:12:04.161Z,101169.31
2022-10-10T05:15:01.466Z,101172.13
2022-10-10T05:17:58.232Z,101163.03
2022-10-10T05:20:56.153Z,101169.78
2022-10-10T05:23:55.291Z,101170.28
2022-10-10T05:26:52.070Z,101165.66
2022-10-10T05:29:49.091Z,101162.00
2022-10-10T05:32:46.304Z,101158.38
2022-10-10T05:35:43.184Z,101161.19
2022-10-10T05:38:43.515Z,101149.09
2022-10-10T05:41:41.417Z,101146.28
2022-10-10T05:44:38.036Z,101142.81
2022-10-10T05:47:34.977Z,101150.94
2022-10-10T05:50:38.598Z,101148.63
2022-10-10T05:53:36.415Z,101152.59
2022-10-10T05:56:33.333Z,101153.41
2022-10-10T05:59:30.286Z,101149.59
2022-10-10T06:02:27.149Z,101149.09
2022-10-10T06:05:24.796Z,101133.19
2022-10-10T06:08:22.610Z,101138.28
2022-10-10T06:11:20.825Z,101134.81
2022-10-10T06:14:18.357Z,101142.59
2022-10-10T06:17:15.061Z,101143.59
2022-10-10T06:20:12.908Z,101146.22
2022-10-10T06:23:10.456Z,101134.78
2022-10-10T06:26:07.678Z,101139.06
2022-10-10T06:29:05.312Z,101139.41
2022-10-10T06:32:02.024Z,101145.34
2022-10-10T06:34:59.409Z,101137.19
2022-10-10T06:37:56.323Z,101149.25
2022-10-10T06:40:54.810Z,101141.66
2022-10-10T06:43:54.497Z,101147.13
2022-10-10T06:46:51.369Z,101143.09
2022-10-10T06:49:48.377Z,101150.38
2022-10-10T06:52:45.241Z,101140.09
2022-10-10T06:55:46.896Z,101147.56
2022-10-10T06:58:44.344Z,101143.28
2022-10-10T07:01:41.311Z,101151.91
2022-10-10T07:04:38.662Z,101141.19
2022-10-10T07:07:36.467Z,101134.88
2022-10-10T07:10:33.579Z,101141.69
2022-10-10T07:13:30.248Z,101149.19
2022-10-10T07:16:27.417Z,101142.56
2022-10-10T07:19:25.423Z,101142.16
2022-10-10T07:22:22.694Z,101139.13
2022-10-10T07:25:20.581Z,101140.56
2022-10-10T07:28:17.360Z,101158.16
2022-10-10T07:31:16.066Z,101152.19
2022-10-10T07:34:13.116Z,101145.31
2022-10-10T07:37:10.673Z,101144.03
2022-10-10T07:40:09.373Z,101150.84
2022-10-10T07:43:06.608Z,101140.97
2022-10-10T07:46:08.391Z,101146.94
2022-10-10T07:49:08.517Z,101154.75
2022-10-10T07:52:05.266Z,101156.72
2022-10-10T07:55:03.389Z,101156.50
2022-10-10T07:58:03.716Z,101144.47
2022-10-10T08:01:05.463Z,101143.56
2022-10-10T08:04:02.447Z,101148.91
2022-10-10T08:06:59.154Z,101156.28
2022-10-10T08:09:55.990Z,101152.88
2022-10-10T08:12:53.371Z,101155.06
2022-10-10T08:15:53.421Z,101158.94
2022-10-10T08:18:50.619Z,101167.81
2022-10-10T08:21:47.258Z,101159.16
2022-10-10T08:24:44.380Z,101159.97
2022-10-10T08:27:41.695Z,101160.16
2022-10-10T08:30:41.539Z,101150.03
2022-10-10T08:33:38.496Z,101155.41
2022-10-10T08:36:35.397Z,101152.66
2022-10-10T08:39:32.341Z,101144.59
2022-10-10T08:42:39.619Z,101139.28
2022-10-10T08:45:41.800Z,101139.28
2022-10-10T08:48:39.399Z,101143.13
2022-10-10T08:51:36.336Z,101149.56
2022-10-10T08:54:33.737Z,101154.31
2022-10-10T08:57:33.999Z,101150.25
2022-10-10T09:00:33.135Z,101156.81
2022-10-10T09:03:48.674Z,101150.28
2022-10-10T09:06:50.506Z,101153.34
2022-10-10T09:09:53.262Z,101149.47
2022-10-10T09:13:29.650Z,101149.81
2022-10-10T09:16:51.709Z,101145.06
2022-10-10T09:20:03.783Z,101145.94
2022-10-10T09:23:28.293Z,101133.78
2022-10-10T09:26:27.057Z,101139.47
2022-10-10T09:29:47.599Z,101146.84
2022-10-10T09:32:47.835Z,101146.94
2022-10-10T09:35:45.208Z,101143.69
2022-10-10T09:38:50.922Z,101154.50
2022-10-10T09:41:55.437Z,101161.28
2022-10-10T09:44:52.364Z,101147.44
2022-10-10T09:47:54.792Z,101140.94
2022-10-10T09:50:52.842Z,101153.75
2022-10-10T09:53:50.407Z,101147.28
2022-10-10T09:56:53.702Z,101147.00
2022-10-10T09:59:50.507Z,101152.38
2022-10-10T10:02:50.825Z,101143.22
2022-10-10T10:06:01.669Z,101151.63
2022-10-10T10:09:01.478Z,101160.06
2022-10-10T10:11:58.357Z,101165.59
2022-10-10T10:15:03.984Z,101167.16
2022-10-10T10:18:11.118Z,101162.28
2022-10-10T10:21:08.507Z,101163.19
2022-10-10T10:24:23.902Z,101155.91
2022-10-10T10:27:23.657Z,101161.63
2022-10-10T10:30:25.349Z,101146.88
2022-10-10T10:33:25.633Z,101144.00
2022-10-10T10:36:45.579Z,101160.78
2022-10-10T10:39:56.456Z,101161.91
2022-10-10T10:43:02.487Z,101164.97
2022-10-10T10:46:34.976Z,101155.19
2022-10-10T10:49:36.781Z,101167.41
2022-10-10T10:53:02.810Z,101162.47
2022-10-10T10:56:24.134Z,101167.25
2022-10-10T11:00:25.945Z,101163.56
2022-10-10T11:05:15.833Z,101147.34
2022-10-10T11:07:00.090Z,101140.97
2022-10-10T11:10:31.583Z,101139.22
2022-10-10T11:13:51.113Z,101154.22
2022-10-10T11:16:59.826Z,101157.44
2022-10-10T11:20:01.885Z,101149.69
2022-10-10T11:23:09.217Z,101146.31
2022-10-10T11:26:22.630Z,101150.31
2022-10-10T11:29:30.947Z,101143.34
2022-10-10T11:32:36.537Z,101152.44
2022-10-10T11:35:34.906Z,101147.47
2022-10-10T11:38:35.883Z,101141.19
2022-10-10T11:41:36.912Z,101143.94
2022-10-10T11:44:37.072Z,101163.78
2022-10-10T11:47:49.657Z,101162.19
2022-10-10T11:50:46.294Z,101160.19
2022-10-10T11:53:43.741Z,101159.41
2022-10-10T11:56:41.968Z,101166.84
2022-10-10T11:59:49.108Z,101165.19
2022-10-10T12:02:47.137Z,101171.06
2022-10-10T12:05:50.475Z,101168.19
2022-10-10T12:08:53.331Z,101175.06
2022-10-10T12:12:04.906Z,101169.75
2022-10-10T12:15:03.732Z,101168.00
2022-10-10T12:18:00.729Z,101164.69
2022-10-10T12:21:07.687Z,101174.72
2022-10-10T12:24:13.922Z,101161.22
2022-10-10T12:27:26.428Z,101159.69
2022-10-10T12:30:25.060Z,101157.75
2022-10-10T12:33:28.886Z,101158.28
2022-10-10T12:36:30.506Z,101155.84
2022-10-10T12:39:34.529Z,101154.97
2022-10-10T12:42:47.835Z,101154.97
2022-10-10T12:45:53.509Z,101163.72
2022-10-10T12:49:13.072Z,101169.59
2022-10-10T12:52:20.885Z,101164.06
2022-10-10T12:55:21.736Z,101167.00
2022-10-10T12:58:28.555Z,101169.63
2022-10-10T13:01:27.236Z,101178.69
2022-10-10T13:04:25.082Z,101175.91
2022-10-10T13:07:22.990Z,101175.00
2022-10-10T13:10:26.129Z,101173.72
2022-10-10T13:13:23.651Z,101176.00
2022-10-10T13:16:27.659Z,101176.28
2022-10-10T13:19:28.778Z,101173.72
2022-10-10T13:22:26.050Z,101183.72
2022-10-10T13:25:24.097Z,101179.25
2022-10-10T13:28:21.491Z,101185.88
2022-10-10T13:31:18.575Z,101182.56
2022-10-10T13:34:28.338Z,101174.91
2022-10-10T13:37:25.623Z,101180.28
2022-10-10T13:40:22.543Z,101188.22
2022-10-10T13:43:19.915Z,101194.53
2022-10-10T13:46:24.319Z,101189.91
2022-10-10T13:49:25.349Z,101191.50
2022-10-10T13:52:23.307Z,101192.28
2022-10-10T13:55:25.514Z,101189.16
2022-10-10T13:58:22.444Z,101191.19
2022-10-10T14:01:28.769Z,101187.38
2022-10-10T14:04:28.523Z,101197.59
2022-10-10T14:07:26.838Z,101200.41
2022-10-10T14:10:28.331Z,101200.81
2022-10-10T14:13:25.714Z,101201.53
2022-10-10T14:16:24.650Z,101210.94
2022-10-10T14:19:21.496Z,101213.31
2022-10-10T14:22:18.941Z,101216.25
2022-10-10T14:25:15.622Z,101231.84
2022-10-10T14:28:19.885Z,101232.97
2022-10-10T14:31:17.797Z,101246.53
2022-10-10T14:34:15.062Z,101233.38
2022-10-10T14:37:20.761Z,101239.81
2022-10-10T14:40:19.807Z,101257.47
2022-10-10T14:43:17.533Z,101259.97
2022-10-10T14:46:18.388Z,101256.28
2022-10-10T14:49:19.840Z,101259.44
2022-10-10T14:52:16.608Z,101273.47
2022-10-10T14:55:13.701Z,101266.84
2022-10-10T14:58:18.378Z,101276.38
2022-10-10T15:01:15.580Z,101278.81
2022-10-10T15:04:13.479Z,101275.03
2022-10-10T15:07:14.407Z,101279.75
2022-10-10T15:10:33.685Z,101290.25
2022-10-10T15:13:31.176Z,101301.88
2022-10-10T15:16:28.469Z,101296.63
2022-10-10T15:19:25.595Z,101310.09
2022-10-10T15:22:22.764Z,101311.63
2022-10-10T15:25:19.575Z,101309.44
2022-10-10T15:28:16.976Z,101326.09
2022-10-10T15:31:14.182Z,101334.56
2022-10-10T15:34:11.818Z,101334.69
2022-10-10T15:37:10.620Z,101341.63
2022-10-10T15:40:07.752Z,101342.84
2022-10-10T15:43:04.846Z,101341.91
2022-10-10T15:46:01.570Z,101359.22
2022-10-10T15:49:00.715Z,101371.97
2022-10-10T15:51:57.714Z,101367.34
2022-10-10T15:54:54.656Z,101372.34
2022-10-10T15:57:51.570Z,101372.94
2022-10-10T16:00:49.099Z,101372.31
2022-10-10T16:03:48.211Z,101386.53
2022-10-10T16:06:54.275Z,101385.06
2022-10-10T16:10:02.989Z,101393.91
2022-10-10T16:12:59.513Z,101400.47
2022-10-10T16:16:00.531Z,101405.78
2022-10-10T16:18:57.780Z,101409.63
2022-10-10T16:21:54.709Z,101413.13
2022-10-10T16:25:17.421Z,101414.03
2022-10-10T16:28:08.935Z,101453.69
2022-10-10T16:31:06.720Z,101468.00
2022-10-10T16:34:03.980Z,101457.66
2022-10-10T16:37:00.893Z,101461.28
2022-10-10T16:39:57.798Z,101464.88
2022-10-10T16:42:54.680Z,101468.28
2022-10-10T16:45:51.723Z,101477.31
2022-10-10T16:48:48.859Z,101487.84
2022-10-10T16:51:45.986Z,101482.41
2022-10-10T16:54:42.697Z,101501.91
2022-10-10T16:57:40.478Z,101502.84
2022-10-10T17:00:37.937Z,101516.63
2022-10-10T17:03:34.882Z,101540.00
2022-10-10T17:06:37.525Z,101550.00
2022-10-10T17:09:34.955Z,101546.69
2022-10-10T17:12:31.877Z,101548.91
2022-10-10T17:15:28.827Z,101557.41
2022-10-10T17:18:25.878Z,101562.00
2022-10-10T17:21:24.839Z,101563.50
2022-10-10T17:24:21.765Z,101582.03
2022-10-10T17:27:18.868Z,101566.13
2022-10-10T17:30:15.527Z,101583.28
2022-10-10T17:33:13.457Z,101592.66
2022-10-10T17:36:18.545Z,101596.53
2022-10-10T17:39:16.251Z,101600.13
2022-10-10T17:42:13.630Z,101603.03
2022-10-10T17:45:11.266Z,101618.63
2022-10-10T17:48:09.527Z,101630.22
2022-10-10T17:51:10.759Z,101629.38
2022-10-10T17:54:09.503Z,101630.94
2022-10-10T17:57:06.671Z,101643.22
2022-10-10T18:00:05.013Z,101642.75
2022-10-10T18:03:08.061Z,101649.34
2022-10-10T18:06:10.121Z,101650.22
2022-10-10T18:09:07.678Z,101663.34
2022-10-10T18:12:07.846Z,101670.94
2022-10-10T18:15:05.247Z,101678.63
2022-10-10T18:18:02.665Z,101673.78
2022-10-10T18:21:04.433Z,101675.94
2022-10-10T18:24:02.143Z,101684.16
2022-10-10T18:26:59.033Z,101687.38
2022-10-10T18:29:55.817Z,101691.66
2022-10-10T18:32:52.566Z,101701.88
2022-10-10T18:35:50.219Z,101702.03
2022-10-10T18:38:47.964Z,101720.00
2022-10-10T18:41:45.695Z,101712.69
2022-10-10T18:44:43.164Z,101715.56
2022-10-10T18:47:39.872Z,101715.44
2022-10-10T18:50:36.960Z,101724.44
2022-10-10T18:53:37.863Z,101725.03
2022-10-10T18:56:36.807Z,101731.19
2022-10-10T18:59:34.219Z,101719.50
2022-10-10T19:02:31.972Z,101736.03
2022-10-10T19:05:28.885Z,101739.22
2022-10-10T19:08:25.560Z,101727.88
2022-10-10T19:11:24.866Z,101735.09
2022-10-10T19:14:22.195Z,101737.44
2022-10-10T19:17:20.059Z,101738.53
2022-10-10T19:20:18.116Z,101748.94
2022-10-10T19:23:15.056Z,101746.81
2022-10-10T19:26:13.629Z,101745.63
2022-10-10T19:29:11.290Z,101754.72
2022-10-10T19:32:09.096Z,101757.06
2022-10-10T19:35:06.332Z,101766.75
2022-10-10T19:38:07.052Z,101774.03
2022-10-10T19:41:12.775Z,101771.50
2022-10-10T19:44:12.278Z,101775.13
2022-10-10T19:47:10.262Z,101778.22
2022-10-10T19:50:07.836Z,101780.53
2022-10-10T19:53:05.289Z,101779.16
2022-10-10T19:56:07.714Z,101783.59
2022-10-10T19:59:06.011Z,101792.22
2022-10-10T20:02:03.124Z,101793.03
2022-10-10T20:04:59.640Z,101790.09
2022-10-10T20:07:57.276Z,101801.16
2022-10-10T20:10:54.954Z,101794.09
2022-10-10T20:13:53.981Z,101798.09
2022-10-10T20:16:50.822Z,101811.56
2022-10-10T20:19:48.171Z,101810.69
2022-10-10T20:22:45.171Z,101816.34
2022-10-10T20:25:42.961Z,101809.78
2022-10-10T20:28:40.305Z,101824.00
2022-10-10T20:31:38.080Z,101834.28
2022-10-10T20:34:34.784Z,101838.09
2022-10-10T20:37:34.101Z,101841.50
2022-10-10T20:40:31.520Z,101853.56
2022-10-10T20:43:29.168Z,101857.81
2022-10-10T20:46:27.706Z,101864.94
2022-10-10T20:49:24.917Z,101865.16
2022-10-10T20:52:21.891Z,101862.09
2022-10-10T20:55:18.882Z,101855.53
2022-10-10T20:58:16.170Z,101872.41
2022-10-10T21:01:14.894Z,101878.22
2022-10-10T21:04:13.968Z,101875.66
2022-10-10T21:07:11.614Z,101883.25
2022-10-10T21:10:09.563Z,101891.88
2022-10-10T21:13:07.221Z,101890.03
2022-10-10T21:16:12.473Z,101890.84
2022-10-10T21:19:10.993Z,101899.06
2022-10-10T21:22:07.923Z,101898.78
2022-10-10T21:25:05.611Z,101910.19
2022-10-10T21:28:03.123Z,101916.88
2022-10-10T21:31:00.342Z,101913.16
2022-10-10T21:33:58.859Z,101914.19
2022-10-10T21:36:55.941Z,101917.63
2022-10-10T21:39:52.856Z,101926.91
2022-10-10T21:42:50.065Z,101937.00
2022-10-10T21:45:47.123Z,101935.56
2022-10-10T21:48:44.458Z,101938.59
2022-10-10T21:51:43.437Z,101941.66
2022-10-10T21:54:41.190Z,101940.88
2022-10-10T21:57:38.078Z,101946.41
2022-10-10T22:00:35.016Z,101946.97
2022-10-10T22:03:31.901Z,101948.47
2022-10-10T22:06:28.995Z,101945.06
2022-10-10T22:09:25.981Z,101955.47
2022-10-10T22:12:22.981Z,101967.25
2022-10-10T22:15:20.035Z,101965.16
2022-10-10T22:18:16.987Z,101966.13
2022-10-10T22:21:15.541Z,101972.06
2022-10-10T22:24:12.770Z,101965.28
2022-10-10T22:27:10.017Z,101971.66
2022-10-10T22:30:08.360Z,101968.13
2022-10-10T22:33:05.176Z,101978.66
2022-10-10T22:36:02.490Z,101970.81
2022-10-10T22:39:00.039Z,101969.59
2022-10-10T22:41:56.992Z,101976.72
2022-10-10T22:44:53.959Z,101979.53
2022-10-10T22:47:51.082Z,101980.25
2022-10-10T22:50:48.128Z,101978.59
2022-10-10T22:53:45.767Z,101983.44
2022-10-10T22:56:43.090Z,101974.63
2022-10-10T22:59:40.152Z,101990.25
2022-10-10T23:02:37.036Z,101976.66
2022-10-10T23:05:34.380Z,101984.16
2022-10-10T23:08:31.984Z,101983.63
2022-10-10T23:11:28.719Z,101992.00
2022-10-10T23:14:26.205Z,101996.69
2022-10-10T23:17:22.931Z,101999.41
2022-10-10T23:20:19.818Z,101999.59
2022-10-10T23:23:17.321Z,101996.97
2022-10-10T23:26:14.185Z,101992.28
2022-10-10T23:29:10.983Z,102002.09
2022-10-10T23:32:08.039Z,101995.47
2022-10-10T23:35:05.688Z,102005.59
2022-10-10T23:38:03.255Z,102000.22
2022-10-10T23:41:00.327Z,102000.44
2022-10-10T23:43:56.953Z,102007.09
2022-10-10T23:46:54.279Z,102008.72
2022-10-10T23:49:51.245Z,102011.47
2022-10-10T23:52:33.576Z,102004.75
2022-10-10T23:55:16.507Z,102016.59
2022-10-10T23:58:02.889Z,102018.16
